AU-0088 weather

Couran Cove Resort Helipad
Couran Cove Resort, Queensland, Australia

Public forecast

Using degrees Celsius for public forecast. Weather courtesy of forecast.io.

METAR (pilot weather report)

Closest report is Gold Coast Airport, 21.1 nm (39.0 km) SSE. Retrieved 2019/02/17 21:30 UTC (6 minutes ago):

YBCG 172130Z AUTO 21006KT 9999 // SCT032 BKN056 24/18 Q1012

TAF (pilot weather forecast)

Closest forecast is Gold Coast Airport, 21.1 nm (39.0 km) SSE. Retrieved 2019/02/17 18:00 UTC (4 hours ago):

TAF YBCG 171710Z 1718/1818 20006KT 9999 SCT035 FM172300 14010KT 9999 SCT040 FM180100 12014KT 9999 FEW045 FM180900 11008KT 9999 SCT030 FM181200 20005KT 9999 SCT030